Weather at San Carlos Airport

Public forecast

Using degrees Celsius for public forecast. Weather courtesy of forecast.io.

Closest aviation weather report (METAR) to San Carlos Airport

Closest report is Ignacio Agramonte International Airport, 26.7 nm (49.4 km) NE. Retrieved 2021/09/24 17:51 UTC (42 minutes ago):

MUCM 241751Z 07007KT 030V090 9000 SCT020 34/21 Q1013

Closest aviation forecast (TAF) to San Carlos Airport

Closest forecast is Ignacio Agramonte International Airport, 26.7 nm (49.4 km) NE. Retrieved 2021/09/24 18:06 UTC (27 minutes ago):

TAF MUCM 241700Z 2418/2518 VRB03KT 9000 SCT018 TEMPO 2419/2424 VRB10KT 4000 TSRA SCT020CB BKN040